sensor_id;sensor_type;location;lat;lon;timestamp;temperature;humidity
36594;DHT22;22603;47.900;8.146;2023-03-15T00:00:43;-0.10;99.90
36594;DHT22;22603;47.900;8.146;2023-03-15T00:03:31;-0.20;99.90
36594;DHT22;22603;47.900;8.146;2023-03-15T00:06:23;-0.20;99.90
36594;DHT22;22603;47.900;8.146;2023-03-15T00:09:10;-0.20;99.90
36594;DHT22;22603;47.900;8.146;2023-03-15T00:11:57;-0.20;99.90
36594;DHT22;22603;47.900;8.146;2023-03-15T00:14:44;-0.30;99.90
36594;DHT22;22603;47.900;8.146;2023-03-15T00:17:32;-0.40;99.90
36594;DHT22;22603;47.900;8.146;2023-03-15T00:20:19;-0.40;99.90
36594;DHT22;22603;47.900;8.146;2023-03-15T00:23:08;-0.40;99.90
36594;DHT22;22603;47.900;8.146;2023-03-15T00:25:55;-0.50;99.90
36594;DHT22;22603;47.900;8.146;2023-03-15T00:28:42;-0.40;99.90
36594;DHT22;22603;47.900;8.146;2023-03-15T00:31:29;-0.70;99.90
36594;DHT22;22603;47.900;8.146;2023-03-15T00:34:17;-0.60;99.90
36594;DHT22;22603;47.900;8.146;2023-03-15T00:37:08;-0.60;99.90
36594;DHT22;22603;47.900;8.146;2023-03-15T00:39:58;-0.60;99.90
36594;DHT22;22603;47.900;8.146;2023-03-15T00:42:45;-0.60;99.90
36594;DHT22;22603;47.900;8.146;2023-03-15T00:45:35;-0.50;99.90
36594;DHT22;22603;47.900;8.146;2023-03-15T00:48:21;-0.50;99.90
36594;DHT22;22603;47.900;8.146;2023-03-15T00:51:10;-0.50;99.90
36594;DHT22;22603;47.900;8.146;2023-03-15T00:53:57;-0.30;99.90
36594;DHT22;22603;47.900;8.146;2023-03-15T00:56:45;-0.50;99.90
36594;DHT22;22603;47.900;8.146;2023-03-15T00:59:32;-0.50;99.90
36594;DHT22;22603;47.900;8.146;2023-03-15T01:02:19;-0.60;99.90
36594;DHT22;22603;47.900;8.146;2023-03-15T01:05:08;-0.70;99.90
36594;DHT22;22603;47.900;8.146;2023-03-15T01:07:55;-0.70;99.90
36594;DHT22;22603;47.900;8.146;2023-03-15T01:10:42;-0.50;99.90
36594;DHT22;22603;47.900;8.146;2023-03-15T01:13:30;-0.60;99.90
36594;DHT22;22603;47.900;8.146;2023-03-15T01:16:18;-0.60;99.90
36594;DHT22;22603;47.900;8.146;2023-03-15T01:19:05;-0.50;99.90
36594;DHT22;22603;47.900;8.146;2023-03-15T01:21:52;-0.40;99.90
36594;DHT22;22603;47.900;8.146;2023-03-15T01:24:39;-0.50;99.90
36594;DHT22;22603;47.900;8.146;2023-03-15T01:27:26;-0.50;99.90
36594;DHT22;22603;47.900;8.146;2023-03-15T01:30:16;-0.60;99.90
36594;DHT22;22603;47.900;8.146;2023-03-15T01:33:03;-0.70;99.90
36594;DHT22;22603;47.900;8.146;2023-03-15T01:35:57;-0.50;99.90
36594;DHT22;22603;47.900;8.146;2023-03-15T01:38:45;-0.80;99.90
36594;DHT22;22603;47.900;8.146;2023-03-15T01:41:37;-0.70;99.90
36594;DHT22;22603;47.900;8.146;2023-03-15T01:44:48;-0.90;99.90
36594;DHT22;22603;47.900;8.146;2023-03-15T01:47:37;-1.10;99.90
36594;DHT22;22603;47.900;8.146;2023-03-15T01:50:29;-1.10;99.90
36594;DHT22;22603;47.900;8.146;2023-03-15T01:53:16;-1.30;99.90
36594;DHT22;22603;47.900;8.146;2023-03-15T01:56:04;-1.30;99.90
36594;DHT22;22603;47.900;8.146;2023-03-15T01:58:52;-1.40;99.90
36594;DHT22;22603;47.900;8.146;2023-03-15T02:01:41;-1.50;99.90
36594;DHT22;22603;47.900;8.146;2023-03-15T02:04:39;-1.60;99.90
36594;DHT22;22603;47.900;8.146;2023-03-15T02:07:31;-1.70;99.90
36594;DHT22;22603;47.900;8.146;2023-03-15T02:10:24;-1.80;99.90
36594;DHT22;22603;47.900;8.146;2023-03-15T02:13:15;-1.80;99.90
36594;DHT22;22603;47.900;8.146;2023-03-15T02:16:03;-1.90;99.90
36594;DHT22;22603;47.900;8.146;2023-03-15T02:18:51;-2.00;99.90
36594;DHT22;22603;47.900;8.146;2023-03-15T02:21:48;-1.80;99.90
36594;DHT22;22603;47.900;8.146;2023-03-15T02:24:43;-1.90;99.90
36594;DHT22;22603;47.900;8.146;2023-03-15T02:27:36;-2.10;99.90
36594;DHT22;22603;47.900;8.146;2023-03-15T02:30:24;-2.10;99.90
36594;DHT22;22603;47.900;8.146;2023-03-15T02:33:16;-2.10;99.90
36594;DHT22;22603;47.900;8.146;2023-03-15T02:36:09;-2.20;99.90
36594;DHT22;22603;47.900;8.146;2023-03-15T02:38:57;-2.20;99.90
36594;DHT22;22603;47.900;8.146;2023-03-15T02:41:48;-2.00;99.90
36594;DHT22;22603;47.900;8.146;2023-03-15T02:44:38;-2.30;99.90
36594;DHT22;22603;47.900;8.146;2023-03-15T02:47:30;-2.30;99.90
36594;DHT22;22603;47.900;8.146;2023-03-15T02:50:18;-2.20;99.90
36594;DHT22;22603;47.900;8.146;2023-03-15T02:53:05;-2.40;99.90
36594;DHT22;22603;47.900;8.146;2023-03-15T02:55:52;-2.40;99.90
36594;DHT22;22603;47.900;8.146;2023-03-15T02:58:39;-2.40;99.90
36594;DHT22;22603;47.900;8.146;2023-03-15T03:01:28;-2.50;99.90
36594;DHT22;22603;47.900;8.146;2023-03-15T03:04:16;-2.50;99.90
36594;DHT22;22603;47.900;8.146;2023-03-15T03:07:03;-2.40;99.90
36594;DHT22;22603;47.900;8.146;2023-03-15T03:09:50;-2.40;99.90
36594;DHT22;22603;47.900;8.146;2023-03-15T03:12:38;-2.50;99.90
36594;DHT22;22603;47.900;8.146;2023-03-15T03:15:24;-2.60;99.90
36594;DHT22;22603;47.900;8.146;2023-03-15T03:18:13;-2.60;99.90
36594;DHT22;22603;47.900;8.146;2023-03-15T03:21:01;-2.60;99.90
36594;DHT22;22603;47.900;8.146;2023-03-15T03:23:52;-2.40;99.90
36594;DHT22;22603;47.900;8.146;2023-03-15T03:26:42;-2.40;99.90
36594;DHT22;22603;47.900;8.146;2023-03-15T03:29:32;-2.40;99.90
36594;DHT22;22603;47.900;8.146;2023-03-15T03:32:26;-2.20;99.90
36594;DHT22;22603;47.900;8.146;2023-03-15T03:35:26;-2.40;99.90
36594;DHT22;22603;47.900;8.146;2023-03-15T03:38:17;-2.20;99.90
36594;DHT22;22603;47.900;8.146;2023-03-15T03:41:05;-2.20;99.90
36594;DHT22;22603;47.900;8.146;2023-03-15T03:43:58;-2.20;99.90
36594;DHT22;22603;47.900;8.146;2023-03-15T03:46:47;-2.20;99.90
36594;DHT22;22603;47.900;8.146;2023-03-15T03:49:42;-2.40;99.90
36594;DHT22;22603;47.900;8.146;2023-03-15T03:52:35;-2.60;99.90
36594;DHT22;22603;47.900;8.146;2023-03-15T03:55:28;-2.30;99.90
36594;DHT22;22603;47.900;8.146;2023-03-15T03:58:19;-2.50;99.90
36594;DHT22;22603;47.900;8.146;2023-03-15T04:01:13;-2.50;99.90
36594;DHT22;22603;47.900;8.146;2023-03-15T04:04:02;-2.50;99.90
36594;DHT22;22603;47.900;8.146;2023-03-15T04:06:55;-2.70;99.90
36594;DHT22;22603;47.900;8.146;2023-03-15T04:09:49;-2.40;99.90
36594;DHT22;22603;47.900;8.146;2023-03-15T04:12:43;-2.90;99.90
36594;DHT22;22603;47.900;8.146;2023-03-15T04:15:40;-2.90;99.90
36594;DHT22;22603;47.900;8.146;2023-03-15T04:18:30;-3.00;99.90
36594;DHT22;22603;47.900;8.146;2023-03-15T04:21:21;-3.10;99.90
36594;DHT22;22603;47.900;8.146;2023-03-15T04:24:09;-2.90;99.90
36594;DHT22;22603;47.900;8.146;2023-03-15T04:27:03;-2.90;99.90
36594;DHT22;22603;47.900;8.146;2023-03-15T04:29:52;-3.30;99.90
36594;DHT22;22603;47.900;8.146;2023-03-15T04:32:47;-3.20;99.90
36594;DHT22;22603;47.900;8.146;2023-03-15T04:35:36;-3.50;99.90
36594;DHT22;22603;47.900;8.146;2023-03-15T04:38:23;-3.50;99.90
36594;DHT22;22603;47.900;8.146;2023-03-15T04:41:12;-3.50;99.90
36594;DHT22;22603;47.900;8.146;2023-03-15T04:44:00;-3.50;99.90
36594;DHT22;22603;47.900;8.146;2023-03-15T04:46:48;-3.60;99.90
36594;DHT22;22603;47.900;8.146;2023-03-15T04:49:36;-3.60;99.90
36594;DHT22;22603;47.900;8.146;2023-03-15T04:52:23;-3.70;99.90
36594;DHT22;22603;47.900;8.146;2023-03-15T04:55:10;-3.70;99.90
36594;DHT22;22603;47.900;8.146;2023-03-15T04:57:57;-3.80;99.90
36594;DHT22;22603;47.900;8.146;2023-03-15T05:00:45;-3.90;99.90
36594;DHT22;22603;47.900;8.146;2023-03-15T05:03:32;-3.90;99.90
36594;DHT22;22603;47.900;8.146;2023-03-15T05:06:19;-3.90;99.90
36594;DHT22;22603;47.900;8.146;2023-03-15T05:09:07;-4.00;99.90
36594;DHT22;22603;47.900;8.146;2023-03-15T05:11:53;-4.00;99.90
36594;DHT22;22603;47.900;8.146;2023-03-15T05:14:40;-4.10;99.90
36594;DHT22;22603;47.900;8.146;2023-03-15T05:17:29;-4.10;99.90
36594;DHT22;22603;47.900;8.146;2023-03-15T05:20:18;-4.10;99.90
36594;DHT22;22603;47.900;8.146;2023-03-15T05:23:05;-4.20;99.90
36594;DHT22;22603;47.900;8.146;2023-03-15T05:25:54;-4.30;99.90
36594;DHT22;22603;47.900;8.146;2023-03-15T05:28:41;-4.30;99.90
36594;DHT22;22603;47.900;8.146;2023-03-15T05:31:30;-4.30;99.90
36594;DHT22;22603;47.900;8.146;2023-03-15T05:34:22;-4.40;99.90
36594;DHT22;22603;47.900;8.146;2023-03-15T05:37:09;-4.40;99.90
36594;DHT22;22603;47.900;8.146;2023-03-15T05:39:57;-4.40;99.90
36594;DHT22;22603;47.900;8.146;2023-03-15T05:42:43;-4.50;99.90
36594;DHT22;22603;47.900;8.146;2023-03-15T05:45:30;-4.50;99.90
36594;DHT22;22603;47.900;8.146;2023-03-15T05:48:17;-4.50;99.90
36594;DHT22;22603;47.900;8.146;2023-03-15T05:51:06;-4.50;99.90
36594;DHT22;22603;47.900;8.146;2023-03-15T05:53:53;-4.50;99.90
36594;DHT22;22603;47.900;8.146;2023-03-15T05:56:40;-4.60;99.90
36594;DHT22;22603;47.900;8.146;2023-03-15T05:59:27;-4.60;99.90
36594;DHT22;22603;47.900;8.146;2023-03-15T06:02:14;-4.50;99.90
36594;DHT22;22603;47.900;8.146;2023-03-15T06:05:01;-4.50;99.90
36594;DHT22;22603;47.900;8.146;2023-03-15T06:07:49;-4.50;99.90
36594;DHT22;22603;47.900;8.146;2023-03-15T06:10:36;-4.50;99.90
36594;DHT22;22603;47.900;8.146;2023-03-15T06:13:23;-4.50;99.90
36594;DHT22;22603;47.900;8.146;2023-03-15T06:16:10;-4.50;99.90
36594;DHT22;22603;47.900;8.146;2023-03-15T06:18:57;-4.50;99.90
36594;DHT22;22603;47.900;8.146;2023-03-15T06:21:44;-4.50;99.90
36594;DHT22;22603;47.900;8.146;2023-03-15T06:24:33;-4.50;99.90
36594;DHT22;22603;47.900;8.146;2023-03-15T06:27:19;-4.40;99.90
36594;DHT22;22603;47.900;8.146;2023-03-15T06:30:08;-4.40;99.90
36594;DHT22;22603;47.900;8.146;2023-03-15T06:32:55;-4.30;99.90
36594;DHT22;22603;47.900;8.146;2023-03-15T06:35:41;-4.30;99.90
36594;DHT22;22603;47.900;8.146;2023-03-15T06:38:28;-4.20;99.90
36594;DHT22;22603;47.900;8.146;2023-03-15T06:41:17;-4.10;99.90
36594;DHT22;22603;47.900;8.146;2023-03-15T06:44:04;-4.00;99.90
36594;DHT22;22603;47.900;8.146;2023-03-15T06:46:51;-3.90;99.90
36594;DHT22;22603;47.900;8.146;2023-03-15T06:49:38;-3.90;99.90
36594;DHT22;22603;47.900;8.146;2023-03-15T06:52:25;-3.80;99.90
36594;DHT22;22603;47.900;8.146;2023-03-15T06:55:13;-3.80;99.90
36594;DHT22;22603;47.900;8.146;2023-03-15T06:58:04;-3.70;99.90
36594;DHT22;22603;47.900;8.146;2023-03-15T07:00:50;-3.60;99.90
36594;DHT22;22603;47.900;8.146;2023-03-15T07:03:38;-3.60;99.90
36594;DHT22;22603;47.900;8.146;2023-03-15T07:06:24;-3.50;99.90
36594;DHT22;22603;47.900;8.146;2023-03-15T07:09:13;-3.50;99.90
36594;DHT22;22603;47.900;8.146;2023-03-15T07:11:59;-3.30;99.90
36594;DHT22;22603;47.900;8.146;2023-03-15T07:14:47;-3.20;99.90
36594;DHT22;22603;47.900;8.146;2023-03-15T07:17:34;-3.10;99.90
36594;DHT22;22603;47.900;8.146;2023-03-15T07:20:21;-3.00;99.90
36594;DHT22;22603;47.900;8.146;2023-03-15T07:23:08;-2.40;99.90
36594;DHT22;22603;47.900;8.146;2023-03-15T07:25:55;-1.00;99.90
36594;DHT22;22603;47.900;8.146;2023-03-15T07:28:42;0.10;99.90
36594;DHT22;22603;47.900;8.146;2023-03-15T07:31:30;0.60;99.90
36594;DHT22;22603;47.900;8.146;2023-03-15T07:34:17;1.60;99.90
36594;DHT22;22603;47.900;8.146;2023-03-15T07:37:04;2.60;99.90
36594;DHT22;22603;47.900;8.146;2023-03-15T07:39:51;4.00;99.90
36594;DHT22;22603;47.900;8.146;2023-03-15T07:42:38;5.30;99.90
36594;DHT22;22603;47.900;8.146;2023-03-15T07:45:25;5.50;99.90
36594;DHT22;22603;47.900;8.146;2023-03-15T07:48:13;6.70;99.90
36594;DHT22;22603;47.900;8.146;2023-03-15T07:51:00;7.40;99.90
36594;DHT22;22603;47.900;8.146;2023-03-15T07:53:47;7.60;99.90
36594;DHT22;22603;47.900;8.146;2023-03-15T07:56:35;7.80;99.90
36594;DHT22;22603;47.900;8.146;2023-03-15T07:59:22;7.90;99.90
36594;DHT22;22603;47.900;8.146;2023-03-15T08:02:11;9.10;99.90
36594;DHT22;22603;47.900;8.146;2023-03-15T08:05:00;9.70;99.90
36594;DHT22;22603;47.900;8.146;2023-03-15T08:07:48;10.10;99.90
36594;DHT22;22603;47.900;8.146;2023-03-15T08:10:35;9.60;99.90
36594;DHT22;22603;47.900;8.146;2023-03-15T08:13:22;9.30;99.90
36594;DHT22;22603;47.900;8.146;2023-03-15T08:16:09;9.80;99.90
36594;DHT22;22603;47.900;8.146;2023-03-15T08:18:56;10.30;99.90
36594;DHT22;22603;47.900;8.146;2023-03-15T08:21:45;9.80;99.90
36594;DHT22;22603;47.900;8.146;2023-03-15T08:24:33;9.40;99.90
36594;DHT22;22603;47.900;8.146;2023-03-15T08:27:20;8.80;99.90
36594;DHT22;22603;47.900;8.146;2023-03-15T08:30:07;9.70;99.90
36594;DHT22;22603;47.900;8.146;2023-03-15T08:32:56;9.00;99.90
36594;DHT22;22603;47.900;8.146;2023-03-15T08:35:44;9.00;99.90
36594;DHT22;22603;47.900;8.146;2023-03-15T08:38:32;10.50;99.90
36594;DHT22;22603;47.900;8.146;2023-03-15T08:41:19;10.40;99.90
36594;DHT22;22603;47.900;8.146;2023-03-15T08:44:06;10.90;99.90
36594;DHT22;22603;47.900;8.146;2023-03-15T08:46:53;7.70;99.90
36594;DHT22;22603;47.900;8.146;2023-03-15T08:49:40;7.70;99.90
36594;DHT22;22603;47.900;8.146;2023-03-15T08:52:27;8.50;99.90
36594;DHT22;22603;47.900;8.146;2023-03-15T08:55:15;9.20;99.90
36594;DHT22;22603;47.900;8.146;2023-03-15T08:58:03;8.40;99.90
36594;DHT22;22603;47.900;8.146;2023-03-15T09:00:50;8.00;99.90
36594;DHT22;22603;47.900;8.146;2023-03-15T09:03:38;7.60;99.90
36594;DHT22;22603;47.900;8.146;2023-03-15T09:06:27;9.00;99.90
36594;DHT22;22603;47.900;8.146;2023-03-15T09:09:14;10.70;99.90
36594;DHT22;22603;47.900;8.146;2023-03-15T09:12:03;10.60;99.90
36594;DHT22;22603;47.900;8.146;2023-03-15T09:14:50;10.50;99.90
36594;DHT22;22603;47.900;8.146;2023-03-15T09:17:37;10.90;99.90
36594;DHT22;22603;47.900;8.146;2023-03-15T09:20:24;11.80;99.90
36594;DHT22;22603;47.900;8.146;2023-03-15T09:23:13;11.60;99.90
36594;DHT22;22603;47.900;8.146;2023-03-15T09:25:59;11.00;99.90
36594;DHT22;22603;47.900;8.146;2023-03-15T09:28:48;9.10;99.90
36594;DHT22;22603;47.900;8.146;2023-03-15T09:31:35;8.40;99.90
36594;DHT22;22603;47.900;8.146;2023-03-15T09:34:22;8.30;99.90
36594;DHT22;22603;47.900;8.146;2023-03-15T09:37:12;11.00;99.90
36594;DHT22;22603;47.900;8.146;2023-03-15T09:39:59;11.10;99.90
36594;DHT22;22603;47.900;8.146;2023-03-15T09:42:59;11.70;99.90
36594;DHT22;22603;47.900;8.146;2023-03-15T09:45:59;10.50;99.90
36594;DHT22;22603;47.900;8.146;2023-03-15T09:48:51;10.30;99.90
36594;DHT22;22603;47.900;8.146;2023-03-15T09:51:43;12.00;99.90
36594;DHT22;22603;47.900;8.146;2023-03-15T09:54:38;11.40;99.90
36594;DHT22;22603;47.900;8.146;2023-03-15T09:57:34;10.90;99.90
36594;DHT22;22603;47.900;8.146;2023-03-15T10:00:26;11.20;99.90
36594;DHT22;22603;47.900;8.146;2023-03-15T10:03:26;12.60;99.90
36594;DHT22;22603;47.900;8.146;2023-03-15T10:06:17;12.90;99.90
36594;DHT22;22603;47.900;8.146;2023-03-15T10:09:11;13.50;99.90
36594;DHT22;22603;47.900;8.146;2023-03-15T10:12:02;13.80;99.90
36594;DHT22;22603;47.900;8.146;2023-03-15T10:15:15;13.70;99.90
36594;DHT22;22603;47.900;8.146;2023-03-15T10:18:16;13.60;99.90
36594;DHT22;22603;47.900;8.146;2023-03-15T10:21:20;13.10;99.90
36594;DHT22;22603;47.900;8.146;2023-03-15T10:24:17;13.30;99.90
36594;DHT22;22603;47.900;8.146;2023-03-15T10:27:13;13.50;99.90
36594;DHT22;22603;47.900;8.146;2023-03-15T10:30:07;13.50;99.90
36594;DHT22;22603;47.900;8.146;2023-03-15T10:33:01;13.40;99.90
36594;DHT22;22603;47.900;8.146;2023-03-15T10:35:50;13.30;99.90
36594;DHT22;22603;47.900;8.146;2023-03-15T10:38:45;13.20;99.90
36594;DHT22;22603;47.900;8.146;2023-03-15T10:41:37;13.70;99.90
36594;DHT22;22603;47.900;8.146;2023-03-15T10:44:25;13.40;99.90
36594;DHT22;22603;47.900;8.146;2023-03-15T10:47:15;13.60;99.90
36594;DHT22;22603;47.900;8.146;2023-03-15T10:50:12;13.20;99.90
36594;DHT22;22603;47.900;8.146;2023-03-15T10:53:09;13.40;99.90
36594;DHT22;22603;47.900;8.146;2023-03-15T10:56:00;13.30;99.90
36594;DHT22;22603;47.900;8.146;2023-03-15T10:58:48;13.40;99.90
36594;DHT22;22603;47.900;8.146;2023-03-15T11:02:16;13.60;99.90
36594;DHT22;22603;47.900;8.146;2023-03-15T11:05:15;13.40;99.90
36594;DHT22;22603;47.900;8.146;2023-03-15T11:08:02;13.60;99.90
36594;DHT22;22603;47.900;8.146;2023-03-15T11:10:58;13.30;99.90
36594;DHT22;22603;47.900;8.146;2023-03-15T11:13:57;12.80;99.90
36594;DHT22;22603;47.900;8.146;2023-03-15T11:16:47;12.50;99.90
36594;DHT22;22603;47.900;8.146;2023-03-15T11:19:39;12.90;99.90
36594;DHT22;22603;47.900;8.146;2023-03-15T11:22:27;13.40;99.90
36594;DHT22;22603;47.900;8.146;2023-03-15T11:25:15;12.60;99.90
36594;DHT22;22603;47.900;8.146;2023-03-15T11:28:04;12.60;99.90
36594;DHT22;22603;47.900;8.146;2023-03-15T11:30:51;12.20;99.90
36594;DHT22;22603;47.900;8.146;2023-03-15T11:33:44;12.50;99.90
36594;DHT22;22603;47.900;8.146;2023-03-15T11:36:37;12.60;99.90
36594;DHT22;22603;47.900;8.146;2023-03-15T11:39:31;12.00;99.90
36594;DHT22;22603;47.900;8.146;2023-03-15T11:42:24;11.90;99.90
36594;DHT22;22603;47.900;8.146;2023-03-15T11:45:19;11.40;99.90
36594;DHT22;22603;47.900;8.146;2023-03-15T11:48:12;11.50;99.90
36594;DHT22;22603;47.900;8.146;2023-03-15T11:51:01;11.60;99.90
36594;DHT22;22603;47.900;8.146;2023-03-15T11:53:56;11.50;99.90
36594;DHT22;22603;47.900;8.146;2023-03-15T11:56:52;11.70;99.90
36594;DHT22;22603;47.900;8.146;2023-03-15T11:59:39;11.50;99.90
36594;DHT22;22603;47.900;8.146;2023-03-15T12:02:48;11.70;99.90
36594;DHT22;22603;47.900;8.146;2023-03-15T12:05:43;12.30;99.90
36594;DHT22;22603;47.900;8.146;2023-03-15T12:08:47;12.40;99.90
36594;DHT22;22603;47.900;8.146;2023-03-15T12:11:38;12.30;99.90
36594;DHT22;22603;47.900;8.146;2023-03-15T12:14:27;12.50;99.90
36594;DHT22;22603;47.900;8.146;2023-03-15T12:17:44;11.50;99.90
36594;DHT22;22603;47.900;8.146;2023-03-15T12:20:35;10.40;99.90
36594;DHT22;22603;47.900;8.146;2023-03-15T12:23:34;9.90;99.90
36594;DHT22;22603;47.900;8.146;2023-03-15T12:26:26;9.50;99.90
36594;DHT22;22603;47.900;8.146;2023-03-15T12:29:21;9.80;99.90
36594;DHT22;22603;47.900;8.146;2023-03-15T12:32:12;10.50;99.90
36594;DHT22;22603;47.900;8.146;2023-03-15T12:35:10;10.70;99.90
36594;DHT22;22603;47.900;8.146;2023-03-15T12:38:01;11.00;99.90
36594;DHT22;22603;47.900;8.146;2023-03-15T12:40:51;11.10;99.90
36594;DHT22;22603;47.900;8.146;2023-03-15T12:43:40;10.70;99.90
36594;DHT22;22603;47.900;8.146;2023-03-15T12:46:56;9.90;99.90
36594;DHT22;22603;47.900;8.146;2023-03-15T12:49:44;9.40;99.90
36594;DHT22;22603;47.900;8.146;2023-03-15T12:52:41;9.00;99.90
36594;DHT22;22603;47.900;8.146;2023-03-15T12:55:31;8.20;99.90
36594;DHT22;22603;47.900;8.146;2023-03-15T12:58:21;7.80;99.90
36594;DHT22;22603;47.900;8.146;2023-03-15T13:01:10;7.70;99.90
36594;DHT22;22603;47.900;8.146;2023-03-15T13:04:02;7.60;99.90
36594;DHT22;22603;47.900;8.146;2023-03-15T13:07:15;7.60;99.90
36594;DHT22;22603;47.900;8.146;2023-03-15T13:10:29;7.50;99.90
36594;DHT22;22603;47.900;8.146;2023-03-15T13:13:40;7.30;99.90
36594;DHT22;22603;47.900;8.146;2023-03-15T13:16:35;7.60;99.90
36594;DHT22;22603;47.900;8.146;2023-03-15T13:19:26;7.20;99.90
36594;DHT22;22603;47.900;8.146;2023-03-15T13:22:23;7.00;99.90
36594;DHT22;22603;47.900;8.146;2023-03-15T13:25:18;7.30;99.90
36594;DHT22;22603;47.900;8.146;2023-03-15T13:28:17;7.30;99.90
36594;DHT22;22603;47.900;8.146;2023-03-15T13:31:12;7.40;99.90
36594;DHT22;22603;47.900;8.146;2023-03-15T13:34:11;7.50;99.90
36594;DHT22;22603;47.900;8.146;2023-03-15T13:36:59;7.20;99.90
36594;DHT22;22603;47.900;8.146;2023-03-15T13:39:59;7.40;99.90
36594;DHT22;22603;47.900;8.146;2023-03-15T13:42:48;7.80;99.90
36594;DHT22;22603;47.900;8.146;2023-03-15T13:45:37;8.20;99.90
36594;DHT22;22603;47.900;8.146;2023-03-15T13:48:27;8.30;99.90
36594;DHT22;22603;47.900;8.146;2023-03-15T13:51:19;7.90;99.90
36594;DHT22;22603;47.900;8.146;2023-03-15T13:54:14;7.40;99.90
36594;DHT22;22603;47.900;8.146;2023-03-15T13:57:04;7.40;99.90
36594;DHT22;22603;47.900;8.146;2023-03-15T13:59:57;7.10;99.90
36594;DHT22;22603;47.900;8.146;2023-03-15T14:02:49;7.20;99.90
36594;DHT22;22603;47.900;8.146;2023-03-15T14:05:43;6.90;99.90
36594;DHT22;22603;47.900;8.146;2023-03-15T14:08:34;6.90;99.90
36594;DHT22;22603;47.900;8.146;2023-03-15T14:11:34;7.20;99.90
36594;DHT22;22603;47.900;8.146;2023-03-15T14:14:24;7.10;99.90
36594;DHT22;22603;47.900;8.146;2023-03-15T14:17:23;7.00;99.90
36594;DHT22;22603;47.900;8.146;2023-03-15T14:20:14;6.90;99.90
36594;DHT22;22603;47.900;8.146;2023-03-15T14:23:04;6.80;99.90
36594;DHT22;22603;47.900;8.146;2023-03-15T14:25:53;6.90;99.90
36594;DHT22;22603;47.900;8.146;2023-03-15T14:28:46;6.70;99.90
36594;DHT22;22603;47.900;8.146;2023-03-15T14:31:37;6.50;99.90
36594;DHT22;22603;47.900;8.146;2023-03-15T14:34:33;6.40;99.90
36594;DHT22;22603;47.900;8.146;2023-03-15T14:37:29;6.40;99.90
36594;DHT22;22603;47.900;8.146;2023-03-15T14:40:19;6.30;99.90
36594;DHT22;22603;47.900;8.146;2023-03-15T14:43:07;6.20;99.90
36594;DHT22;22603;47.900;8.146;2023-03-15T14:49:31;6.00;99.90
36594;DHT22;22603;47.900;8.146;2023-03-15T14:52:38;5.70;99.90
36594;DHT22;22603;47.900;8.146;2023-03-15T14:55:32;5.70;99.90
36594;DHT22;22603;47.900;8.146;2023-03-15T14:58:21;5.80;99.90
36594;DHT22;22603;47.900;8.146;2023-03-15T15:01:11;6.00;99.90
36594;DHT22;22603;47.900;8.146;2023-03-15T15:04:02;6.40;99.90
36594;DHT22;22603;47.900;8.146;2023-03-15T15:06:50;6.50;99.90
36594;DHT22;22603;47.900;8.146;2023-03-15T15:09:38;6.50;99.90
36594;DHT22;22603;47.900;8.146;2023-03-15T15:12:28;6.60;99.90
36594;DHT22;22603;47.900;8.146;2023-03-15T15:15:17;6.20;99.90
36594;DHT22;22603;47.900;8.146;2023-03-15T15:18:04;6.20;99.90
36594;DHT22;22603;47.900;8.146;2023-03-15T15:20:52;5.90;99.90
36594;DHT22;22603;47.900;8.146;2023-03-15T15:23:43;5.50;99.90
36594;DHT22;22603;47.900;8.146;2023-03-15T15:26:43;5.30;99.90
36594;DHT22;22603;47.900;8.146;2023-03-15T15:29:30;5.40;99.90
36594;DHT22;22603;47.900;8.146;2023-03-15T15:32:17;5.70;99.90
36594;DHT22;22603;47.900;8.146;2023-03-15T15:35:05;5.90;99.90
36594;DHT22;22603;47.900;8.146;2023-03-15T15:37:52;6.20;99.90
36594;DHT22;22603;47.900;8.146;2023-03-15T15:40:41;6.60;99.90
36594;DHT22;22603;47.900;8.146;2023-03-15T15:43:28;7.10;99.90
36594;DHT22;22603;47.900;8.146;2023-03-15T15:46:18;7.60;99.90
36594;DHT22;22603;47.900;8.146;2023-03-15T15:49:05;7.80;99.90
36594;DHT22;22603;47.900;8.146;2023-03-15T15:51:52;7.90;99.90
36594;DHT22;22603;47.900;8.146;2023-03-15T15:54:39;7.60;99.90
36594;DHT22;22603;47.900;8.146;2023-03-15T15:57:28;7.50;99.90
36594;DHT22;22603;47.900;8.146;2023-03-15T16:00:17;7.10;99.90
36594;DHT22;22603;47.900;8.146;2023-03-15T16:03:10;6.80;99.90
36594;DHT22;22603;47.900;8.146;2023-03-15T16:05:59;6.30;99.90
36594;DHT22;22603;47.900;8.146;2023-03-15T16:08:48;6.10;99.90
36594;DHT22;22603;47.900;8.146;2023-03-15T16:11:36;5.90;99.90
36594;DHT22;22603;47.900;8.146;2023-03-15T16:14:25;5.80;99.90
36594;DHT22;22603;47.900;8.146;2023-03-15T16:17:15;5.80;99.90
36594;DHT22;22603;47.900;8.146;2023-03-15T16:20:03;5.40;99.90
36594;DHT22;22603;47.900;8.146;2023-03-15T16:22:56;5.20;99.90
36594;DHT22;22603;47.900;8.146;2023-03-15T16:25:47;4.90;99.90
36594;DHT22;22603;47.900;8.146;2023-03-15T16:28:34;4.80;99.90
36594;DHT22;22603;47.900;8.146;2023-03-15T16:31:23;4.70;99.90
36594;DHT22;22603;47.900;8.146;2023-03-15T16:34:11;4.80;99.90
36594;DHT22;22603;47.900;8.146;2023-03-15T16:37:00;4.80;99.90
36594;DHT22;22603;47.900;8.146;2023-03-15T16:39:48;4.70;99.90
36594;DHT22;22603;47.900;8.146;2023-03-15T16:42:37;4.60;99.90
36594;DHT22;22603;47.900;8.146;2023-03-15T16:45:24;4.50;99.90
36594;DHT22;22603;47.900;8.146;2023-03-15T16:48:13;4.40;99.90
36594;DHT22;22603;47.900;8.146;2023-03-15T16:51:00;4.30;99.90
36594;DHT22;22603;47.900;8.146;2023-03-15T16:53:49;4.30;99.90
36594;DHT22;22603;47.900;8.146;2023-03-15T16:56:49;4.20;99.90
36594;DHT22;22603;47.900;8.146;2023-03-15T16:59:36;4.20;99.90
36594;DHT22;22603;47.900;8.146;2023-03-15T17:02:24;4.10;99.90
36594;DHT22;22603;47.900;8.146;2023-03-15T17:05:13;4.00;99.90
36594;DHT22;22603;47.900;8.146;2023-03-15T17:08:03;3.80;99.90
36594;DHT22;22603;47.900;8.146;2023-03-15T17:10:51;3.80;99.90
36594;DHT22;22603;47.900;8.146;2023-03-15T17:13:39;3.80;99.90
36594;DHT22;22603;47.900;8.146;2023-03-15T17:16:28;3.80;99.90
36594;DHT22;22603;47.900;8.146;2023-03-15T17:19:16;3.80;99.90
36594;DHT22;22603;47.900;8.146;2023-03-15T17:22:06;3.70;99.90
36594;DHT22;22603;47.900;8.146;2023-03-15T17:24:53;3.50;99.90
36594;DHT22;22603;47.900;8.146;2023-03-15T17:27:42;3.40;99.90
36594;DHT22;22603;47.900;8.146;2023-03-15T17:30:30;3.30;99.90
36594;DHT22;22603;47.900;8.146;2023-03-15T17:33:17;3.30;99.90
36594;DHT22;22603;47.900;8.146;2023-03-15T17:36:05;3.30;99.90
36594;DHT22;22603;47.900;8.146;2023-03-15T17:38:55;3.30;99.90
36594;DHT22;22603;47.900;8.146;2023-03-15T17:41:45;3.30;99.90
36594;DHT22;22603;47.900;8.146;2023-03-15T17:44:33;3.30;99.90
36594;DHT22;22603;47.900;8.146;2023-03-15T17:47:20;3.10;99.90
36594;DHT22;22603;47.900;8.146;2023-03-15T17:50:08;3.20;99.90
36594;DHT22;22603;47.900;8.146;2023-03-15T17:52:57;3.20;99.90
36594;DHT22;22603;47.900;8.146;2023-03-15T17:55:46;3.10;99.90
36594;DHT22;22603;47.900;8.146;2023-03-15T17:58:34;3.10;99.90
36594;DHT22;22603;47.900;8.146;2023-03-15T18:01:23;3.00;99.90
36594;DHT22;22603;47.900;8.146;2023-03-15T18:04:12;3.00;99.90
36594;DHT22;22603;47.900;8.146;2023-03-15T18:06:59;3.00;99.90